Terminal Aerodrome Forecast
Issued by NWS Bismarck, ND

Home | Current Version | Previous Version | Text Only | Print | Product List | Glossary Off
Versions: 1 2 3 4 5 6 7 8 9 10 11 12 13 14 15 16 17 18 19 20 21 22 23 24 25 26 27 28 29 30 31

752
FTUS43 KBIS 031726
TAFBIS
TAF
KBIS 031726Z 0318/0418 17010G18KT P6SM BKN008
     FM032000 17009KT P6SM FEW020
     FM032300 18007KT P6SM BKN025
     FM040300 21005KT P6SM VCSH OVC020
     FM040600 28006KT P6SM BKN008
     FM041400 26005KT P6SM BKN050=

USA.gov is the U.S. government's official web portal to all federal, state and local government web resources and services.